sensor_id;sensor_type;location;lat;lon;timestamp;P1;durP1;ratioP1;P2;durP2;ratioP2
79403;SDS011;68858;48.642;9.142;2024-01-30T00:01:01;9.43;;;7.70;;
79403;SDS011;68858;48.642;9.142;2024-01-30T00:03:26;8.13;;;7.30;;
79403;SDS011;68858;48.642;9.142;2024-01-30T00:05:52;8.43;;;7.07;;
79403;SDS011;68858;48.642;9.142;2024-01-30T00:08:17;11.07;;;7.10;;
79403;SDS011;68858;48.642;9.142;2024-01-30T00:10:42;8.30;;;6.87;;
79403;SDS011;68858;48.642;9.142;2024-01-30T00:13:08;8.67;;;6.80;;
79403;SDS011;68858;48.642;9.142;2024-01-30T00:15:34;10.47;;;6.97;;
79403;SDS011;68858;48.642;9.142;2024-01-30T00:17:59;9.90;;;6.23;;
79403;SDS011;68858;48.642;9.142;2024-01-30T00:20:25;10.50;;;6.63;;
79403;SDS011;68858;48.642;9.142;2024-01-30T00:22:51;8.97;;;7.03;;
79403;SDS011;68858;48.642;9.142;2024-01-30T00:25:16;10.23;;;6.90;;
79403;SDS011;68858;48.642;9.142;2024-01-30T00:27:41;8.77;;;6.90;;
79403;SDS011;68858;48.642;9.142;2024-01-30T00:30:07;9.23;;;7.23;;
79403;SDS011;68858;48.642;9.142;2024-01-30T00:32:33;8.63;;;6.87;;
79403;SDS011;68858;48.642;9.142;2024-01-30T00:34:58;7.63;;;6.40;;
79403;SDS011;68858;48.642;9.142;2024-01-30T00:37:23;8.93;;;6.93;;
79403;SDS011;68858;48.642;9.142;2024-01-30T00:39:49;11.30;;;8.10;;
79403;SDS011;68858;48.642;9.142;2024-01-30T00:42:14;10.90;;;7.23;;
79403;SDS011;68858;48.642;9.142;2024-01-30T00:44:40;9.53;;;6.70;;
79403;SDS011;68858;48.642;9.142;2024-01-30T00:47:05;9.13;;;6.50;;
79403;SDS011;68858;48.642;9.142;2024-01-30T00:49:31;10.00;;;7.10;;
79403;SDS011;68858;48.642;9.142;2024-01-30T00:51:57;8.10;;;6.67;;
79403;SDS011;68858;48.642;9.142;2024-01-30T00:54:22;8.80;;;7.07;;
79403;SDS011;68858;48.642;9.142;2024-01-30T00:56:48;9.80;;;6.47;;
79403;SDS011;68858;48.642;9.142;2024-01-30T00:59:13;9.00;;;7.23;;
79403;SDS011;68858;48.642;9.142;2024-01-30T01:01:38;8.43;;;6.73;;
79403;SDS011;68858;48.642;9.142;2024-01-30T01:04:04;8.17;;;6.83;;
79403;SDS011;68858;48.642;9.142;2024-01-30T01:06:29;8.60;;;6.87;;
79403;SDS011;68858;48.642;9.142;2024-01-30T01:08:55;8.87;;;7.33;;
79403;SDS011;68858;48.642;9.142;2024-01-30T01:11:20;9.60;;;7.27;;
79403;SDS011;68858;48.642;9.142;2024-01-30T01:13:45;11.57;;;7.87;;
79403;SDS011;68858;48.642;9.142;2024-01-30T01:16:11;8.37;;;6.63;;
79403;SDS011;68858;48.642;9.142;2024-01-30T01:18:36;7.53;;;6.80;;
79403;SDS011;68858;48.642;9.142;2024-01-30T01:21:02;9.70;;;6.80;;
79403;SDS011;68858;48.642;9.142;2024-01-30T01:23:27;9.83;;;6.83;;
79403;SDS011;68858;48.642;9.142;2024-01-30T01:25:53;12.10;;;7.77;;
79403;SDS011;68858;48.642;9.142;2024-01-30T01:28:19;9.10;;;7.63;;
79403;SDS011;68858;48.642;9.142;2024-01-30T01:30:44;9.57;;;7.70;;
79403;SDS011;68858;48.642;9.142;2024-01-30T01:33:09;10.50;;;7.53;;
79403;SDS011;68858;48.642;9.142;2024-01-30T01:35:35;10.07;;;7.50;;
79403;SDS011;68858;48.642;9.142;2024-01-30T01:38:00;10.27;;;7.40;;
79403;SDS011;68858;48.642;9.142;2024-01-30T01:40:26;10.07;;;7.67;;
79403;SDS011;68858;48.642;9.142;2024-01-30T01:42:52;10.60;;;8.70;;
79403;SDS011;68858;48.642;9.142;2024-01-30T01:45:20;9.63;;;7.77;;
79403;SDS011;68858;48.642;9.142;2024-01-30T01:47:47;10.93;;;8.47;;
79403;SDS011;68858;48.642;9.142;2024-01-30T01:50:16;11.07;;;8.30;;
79403;SDS011;68858;48.642;9.142;2024-01-30T01:52:43;9.53;;;8.00;;
79403;SDS011;68858;48.642;9.142;2024-01-30T01:55:09;8.10;;;7.30;;
79403;SDS011;68858;48.642;9.142;2024-01-30T01:57:35;10.17;;;8.10;;
79403;SDS011;68858;48.642;9.142;2024-01-30T02:00:01;9.67;;;7.73;;
79403;SDS011;68858;48.642;9.142;2024-01-30T02:02:28;9.87;;;7.63;;
79403;SDS011;68858;48.642;9.142;2024-01-30T02:04:56;10.10;;;7.63;;
79403;SDS011;68858;48.642;9.142;2024-01-30T02:07:22;9.40;;;7.63;;
79403;SDS011;68858;48.642;9.142;2024-01-30T02:09:47;9.03;;;7.40;;
79403;SDS011;68858;48.642;9.142;2024-01-30T02:12:13;10.00;;;7.97;;
79403;SDS011;68858;48.642;9.142;2024-01-30T02:14:45;9.37;;;7.93;;
79403;SDS011;68858;48.642;9.142;2024-01-30T02:17:11;7.93;;;6.63;;
79403;SDS011;68858;48.642;9.142;2024-01-30T02:19:37;8.30;;;6.67;;
79403;SDS011;68858;48.642;9.142;2024-01-30T02:22:03;8.70;;;6.80;;
79403;SDS011;68858;48.642;9.142;2024-01-30T02:24:29;7.83;;;6.27;;
79403;SDS011;68858;48.642;9.142;2024-01-30T02:26:55;7.63;;;6.80;;
79403;SDS011;68858;48.642;9.142;2024-01-30T02:29:20;8.10;;;6.53;;
79403;SDS011;68858;48.642;9.142;2024-01-30T02:31:46;7.77;;;6.50;;
79403;SDS011;68858;48.642;9.142;2024-01-30T02:34:12;7.60;;;6.20;;
79403;SDS011;68858;48.642;9.142;2024-01-30T02:36:37;8.87;;;6.47;;
79403;SDS011;68858;48.642;9.142;2024-01-30T02:39:04;8.17;;;6.57;;
79403;SDS011;68858;48.642;9.142;2024-01-30T02:41:30;8.13;;;6.73;;
79403;SDS011;68858;48.642;9.142;2024-01-30T02:43:56;7.07;;;5.97;;
79403;SDS011;68858;48.642;9.142;2024-01-30T02:46:21;7.17;;;6.43;;
79403;SDS011;68858;48.642;9.142;2024-01-30T02:48:47;8.67;;;6.80;;
79403;SDS011;68858;48.642;9.142;2024-01-30T02:51:12;9.13;;;6.83;;
79403;SDS011;68858;48.642;9.142;2024-01-30T02:53:37;9.33;;;6.73;;
79403;SDS011;68858;48.642;9.142;2024-01-30T02:56:03;8.03;;;6.60;;
79403;SDS011;68858;48.642;9.142;2024-01-30T02:58:28;7.40;;;6.47;;
79403;SDS011;68858;48.642;9.142;2024-01-30T03:00:53;9.50;;;6.70;;
79403;SDS011;68858;48.642;9.142;2024-01-30T03:03:19;9.93;;;7.03;;
79403;SDS011;68858;48.642;9.142;2024-01-30T03:05:44;8.37;;;6.77;;
79403;SDS011;68858;48.642;9.142;2024-01-30T03:08:09;7.50;;;6.63;;
79403;SDS011;68858;48.642;9.142;2024-01-30T03:10:35;9.70;;;6.87;;
79403;SDS011;68858;48.642;9.142;2024-01-30T03:13:00;7.80;;;7.00;;
79403;SDS011;68858;48.642;9.142;2024-01-30T03:15:26;9.13;;;7.10;;
79403;SDS011;68858;48.642;9.142;2024-01-30T03:17:52;8.07;;;7.03;;
79403;SDS011;68858;48.642;9.142;2024-01-30T03:20:18;9.93;;;6.90;;
79403;SDS011;68858;48.642;9.142;2024-01-30T03:22:43;8.63;;;6.20;;
79403;SDS011;68858;48.642;9.142;2024-01-30T03:25:10;7.40;;;6.30;;
79403;SDS011;68858;48.642;9.142;2024-01-30T03:27:36;10.87;;;6.67;;
79403;SDS011;68858;48.642;9.142;2024-01-30T03:30:01;9.00;;;7.13;;
79403;SDS011;68858;48.642;9.142;2024-01-30T03:32:27;7.73;;;6.80;;
79403;SDS011;68858;48.642;9.142;2024-01-30T03:34:53;8.03;;;6.20;;
79403;SDS011;68858;48.642;9.142;2024-01-30T03:37:18;8.40;;;6.77;;
79403;SDS011;68858;48.642;9.142;2024-01-30T03:39:44;9.73;;;7.07;;
79403;SDS011;68858;48.642;9.142;2024-01-30T03:42:09;9.10;;;7.17;;
79403;SDS011;68858;48.642;9.142;2024-01-30T03:44:35;7.53;;;6.30;;
79403;SDS011;68858;48.642;9.142;2024-01-30T03:47:00;7.77;;;6.37;;
79403;SDS011;68858;48.642;9.142;2024-01-30T03:49:25;8.27;;;6.70;;
79403;SDS011;68858;48.642;9.142;2024-01-30T03:51:51;9.37;;;7.53;;
79403;SDS011;68858;48.642;9.142;2024-01-30T03:54:16;8.70;;;6.87;;
79403;SDS011;68858;48.642;9.142;2024-01-30T03:56:41;8.47;;;6.37;;
79403;SDS011;68858;48.642;9.142;2024-01-30T03:59:08;8.53;;;6.37;;
79403;SDS011;68858;48.642;9.142;2024-01-30T04:01:34;7.70;;;6.63;;
79403;SDS011;68858;48.642;9.142;2024-01-30T04:03:59;10.33;;;6.83;;
79403;SDS011;68858;48.642;9.142;2024-01-30T04:06:24;6.73;;;6.00;;
79403;SDS011;68858;48.642;9.142;2024-01-30T04:08:50;7.33;;;6.53;;
79403;SDS011;68858;48.642;9.142;2024-01-30T04:11:17;10.67;;;7.47;;
79403;SDS011;68858;48.642;9.142;2024-01-30T04:13:43;8.50;;;6.40;;
79403;SDS011;68858;48.642;9.142;2024-01-30T04:16:18;9.70;;;7.80;;
79403;SDS011;68858;48.642;9.142;2024-01-30T04:18:46;8.03;;;6.73;;
79403;SDS011;68858;48.642;9.142;2024-01-30T04:21:11;7.40;;;6.47;;
79403;SDS011;68858;48.642;9.142;2024-01-30T04:23:36;8.30;;;7.40;;
79403;SDS011;68858;48.642;9.142;2024-01-30T04:26:02;7.57;;;6.70;;
79403;SDS011;68858;48.642;9.142;2024-01-30T04:28:28;11.33;;;7.27;;
79403;SDS011;68858;48.642;9.142;2024-01-30T04:30:54;11.23;;;6.70;;
79403;SDS011;68858;48.642;9.142;2024-01-30T04:33:19;8.33;;;6.67;;
79403;SDS011;68858;48.642;9.142;2024-01-30T04:35:45;8.97;;;6.93;;
79403;SDS011;68858;48.642;9.142;2024-01-30T04:38:10;8.53;;;6.80;;
79403;SDS011;68858;48.642;9.142;2024-01-30T04:40:35;8.27;;;7.00;;
79403;SDS011;68858;48.642;9.142;2024-01-30T04:43:02;8.57;;;6.73;;
79403;SDS011;68858;48.642;9.142;2024-01-30T04:45:27;8.23;;;7.07;;
79403;SDS011;68858;48.642;9.142;2024-01-30T04:47:53;10.27;;;7.83;;
79403;SDS011;68858;48.642;9.142;2024-01-30T04:50:19;16.13;;;12.90;;
79403;SDS011;68858;48.642;9.142;2024-01-30T04:52:44;9.47;;;7.23;;
79403;SDS011;68858;48.642;9.142;2024-01-30T04:55:10;9.00;;;7.90;;
79403;SDS011;68858;48.642;9.142;2024-01-30T04:57:35;8.60;;;6.87;;
79403;SDS011;68858;48.642;9.142;2024-01-30T05:00:01;8.43;;;7.27;;
79403;SDS011;68858;48.642;9.142;2024-01-30T05:02:27;8.23;;;7.07;;
79403;SDS011;68858;48.642;9.142;2024-01-30T05:04:53;10.37;;;8.17;;
79403;SDS011;68858;48.642;9.142;2024-01-30T05:07:18;17.97;;;12.90;;
79403;SDS011;68858;48.642;9.142;2024-01-30T05:09:44;18.83;;;13.87;;
79403;SDS011;68858;48.642;9.142;2024-01-30T05:12:09;62.07;;;34.63;;
79403;SDS011;68858;48.642;9.142;2024-01-30T05:14:35;37.70;;;22.73;;
79403;SDS011;68858;48.642;9.142;2024-01-30T05:17:00;28.10;;;17.37;;
79403;SDS011;68858;48.642;9.142;2024-01-30T05:19:25;16.40;;;11.90;;
79403;SDS011;68858;48.642;9.142;2024-01-30T05:21:51;15.07;;;11.17;;
79403;SDS011;68858;48.642;9.142;2024-01-30T05:24:16;15.60;;;11.50;;
79403;SDS011;68858;48.642;9.142;2024-01-30T05:26:41;15.83;;;11.30;;
79403;SDS011;68858;48.642;9.142;2024-01-30T05:29:07;16.57;;;12.10;;
79403;SDS011;68858;48.642;9.142;2024-01-30T05:31:33;16.97;;;11.80;;
79403;SDS011;68858;48.642;9.142;2024-01-30T05:33:59;17.93;;;12.90;;
79403;SDS011;68858;48.642;9.142;2024-01-30T05:36:24;19.57;;;13.37;;
79403;SDS011;68858;48.642;9.142;2024-01-30T05:38:50;14.70;;;10.90;;
79403;SDS011;68858;48.642;9.142;2024-01-30T05:41:16;15.30;;;11.30;;
79403;SDS011;68858;48.642;9.142;2024-01-30T05:43:41;12.27;;;9.33;;
79403;SDS011;68858;48.642;9.142;2024-01-30T05:46:07;10.17;;;8.20;;
79403;SDS011;68858;48.642;9.142;2024-01-30T05:48:35;9.40;;;7.70;;
79403;SDS011;68858;48.642;9.142;2024-01-30T05:51:00;8.87;;;7.97;;
79403;SDS011;68858;48.642;9.142;2024-01-30T05:53:26;10.40;;;8.17;;
79403;SDS011;68858;48.642;9.142;2024-01-30T05:55:52;9.90;;;7.43;;
79403;SDS011;68858;48.642;9.142;2024-01-30T05:58:17;10.27;;;8.20;;
79403;SDS011;68858;48.642;9.142;2024-01-30T06:00:42;9.43;;;7.73;;
79403;SDS011;68858;48.642;9.142;2024-01-30T06:03:09;11.10;;;8.70;;
79403;SDS011;68858;48.642;9.142;2024-01-30T06:05:34;10.00;;;7.83;;
79403;SDS011;68858;48.642;9.142;2024-01-30T06:08:02;11.13;;;9.03;;
79403;SDS011;68858;48.642;9.142;2024-01-30T06:10:27;13.47;;;9.60;;
79403;SDS011;68858;48.642;9.142;2024-01-30T06:12:52;13.33;;;11.23;;
79403;SDS011;68858;48.642;9.142;2024-01-30T06:15:18;15.00;;;11.27;;
79403;SDS011;68858;48.642;9.142;2024-01-30T06:17:44;25.37;;;17.57;;
79403;SDS011;68858;48.642;9.142;2024-01-30T06:20:10;22.70;;;15.93;;
79403;SDS011;68858;48.642;9.142;2024-01-30T06:22:35;19.87;;;14.90;;
79403;SDS011;68858;48.642;9.142;2024-01-30T06:25:01;17.47;;;12.50;;
79403;SDS011;68858;48.642;9.142;2024-01-30T06:27:26;19.20;;;14.57;;
79403;SDS011;68858;48.642;9.142;2024-01-30T06:29:52;19.47;;;14.77;;
79403;SDS011;68858;48.642;9.142;2024-01-30T06:32:17;16.53;;;13.00;;
79403;SDS011;68858;48.642;9.142;2024-01-30T06:34:42;14.57;;;11.60;;
79403;SDS011;68858;48.642;9.142;2024-01-30T06:37:09;14.97;;;10.97;;
79403;SDS011;68858;48.642;9.142;2024-01-30T06:39:35;13.83;;;9.53;;
79403;SDS011;68858;48.642;9.142;2024-01-30T06:42:00;11.90;;;8.87;;
79403;SDS011;68858;48.642;9.142;2024-01-30T06:44:29;9.13;;;7.60;;
79403;SDS011;68858;48.642;9.142;2024-01-30T06:46:54;9.83;;;7.93;;
79403;SDS011;68858;48.642;9.142;2024-01-30T06:49:19;9.33;;;8.17;;
79403;SDS011;68858;48.642;9.142;2024-01-30T06:51:47;10.13;;;7.60;;
79403;SDS011;68858;48.642;9.142;2024-01-30T06:54:12;8.60;;;7.53;;
79403;SDS011;68858;48.642;9.142;2024-01-30T06:56:37;10.77;;;8.00;;
79403;SDS011;68858;48.642;9.142;2024-01-30T06:59:03;8.27;;;6.70;;
79403;SDS011;68858;48.642;9.142;2024-01-30T07:01:28;10.03;;;7.50;;
79403;SDS011;68858;48.642;9.142;2024-01-30T07:03:54;9.07;;;7.47;;
79403;SDS011;68858;48.642;9.142;2024-01-30T07:06:20;7.50;;;6.70;;
79403;SDS011;68858;48.642;9.142;2024-01-30T07:08:45;9.17;;;7.13;;
79403;SDS011;68858;48.642;9.142;2024-01-30T07:11:10;9.37;;;7.83;;
79403;SDS011;68858;48.642;9.142;2024-01-30T07:13:37;9.70;;;7.10;;
79403;SDS011;68858;48.642;9.142;2024-01-30T07:16:03;8.67;;;7.07;;
79403;SDS011;68858;48.642;9.142;2024-01-30T07:18:28;11.20;;;7.93;;
79403;SDS011;68858;48.642;9.142;2024-01-30T07:20:53;9.17;;;7.50;;
79403;SDS011;68858;48.642;9.142;2024-01-30T07:23:19;8.67;;;7.60;;
79403;SDS011;68858;48.642;9.142;2024-01-30T07:25:45;10.53;;;7.57;;
79403;SDS011;68858;48.642;9.142;2024-01-30T07:28:10;8.30;;;7.43;;
79403;SDS011;68858;48.642;9.142;2024-01-30T07:30:36;10.03;;;8.60;;
79403;SDS011;68858;48.642;9.142;2024-01-30T07:33:02;9.80;;;8.80;;
79403;SDS011;68858;48.642;9.142;2024-01-30T07:35:27;11.63;;;9.23;;
79403;SDS011;68858;48.642;9.142;2024-01-30T07:37:53;13.27;;;10.13;;
79403;SDS011;68858;48.642;9.142;2024-01-30T07:40:18;11.90;;;9.57;;
79403;SDS011;68858;48.642;9.142;2024-01-30T07:42:44;11.20;;;9.50;;
79403;SDS011;68858;48.642;9.142;2024-01-30T07:45:09;12.00;;;10.33;;
79403;SDS011;68858;48.642;9.142;2024-01-30T07:47:35;12.67;;;11.27;;
79403;SDS011;68858;48.642;9.142;2024-01-30T07:50:00;12.40;;;10.27;;
79403;SDS011;68858;48.642;9.142;2024-01-30T07:52:26;11.60;;;10.40;;
79403;SDS011;68858;48.642;9.142;2024-01-30T07:54:52;13.40;;;11.03;;
79403;SDS011;68858;48.642;9.142;2024-01-30T07:57:17;17.30;;;14.00;;
79403;SDS011;68858;48.642;9.142;2024-01-30T07:59:45;14.70;;;12.97;;
79403;SDS011;68858;48.642;9.142;2024-01-30T08:02:14;11.93;;;10.63;;
79403;SDS011;68858;48.642;9.142;2024-01-30T08:04:39;11.80;;;10.60;;
79403;SDS011;68858;48.642;9.142;2024-01-30T08:07:04;11.27;;;9.60;;
79403;SDS011;68858;48.642;9.142;2024-01-30T08:09:30;9.93;;;8.93;;
79403;SDS011;68858;48.642;9.142;2024-01-30T08:11:55;12.30;;;8.90;;
79403;SDS011;68858;48.642;9.142;2024-01-30T08:14:21;10.47;;;9.20;;
79403;SDS011;68858;48.642;9.142;2024-01-30T08:16:46;10.90;;;9.70;;
79403;SDS011;68858;48.642;9.142;2024-01-30T08:19:11;12.80;;;11.47;;
79403;SDS011;68858;48.642;9.142;2024-01-30T08:21:37;12.40;;;10.60;;
79403;SDS011;68858;48.642;9.142;2024-01-30T08:24:03;12.43;;;11.10;;
79403;SDS011;68858;48.642;9.142;2024-01-30T08:26:29;13.20;;;11.30;;
79403;SDS011;68858;48.642;9.142;2024-01-30T08:28:55;11.80;;;10.33;;
79403;SDS011;68858;48.642;9.142;2024-01-30T08:31:20;13.17;;;10.53;;
79403;SDS011;68858;48.642;9.142;2024-01-30T08:33:45;12.00;;;9.73;;
79403;SDS011;68858;48.642;9.142;2024-01-30T08:36:11;11.07;;;9.90;;
79403;SDS011;68858;48.642;9.142;2024-01-30T08:38:36;11.77;;;10.57;;
79403;SDS011;68858;48.642;9.142;2024-01-30T08:41:01;10.90;;;9.43;;
79403;SDS011;68858;48.642;9.142;2024-01-30T08:43:28;10.13;;;8.17;;
79403;SDS011;68858;48.642;9.142;2024-01-30T08:45:53;11.03;;;9.63;;
79403;SDS011;68858;48.642;9.142;2024-01-30T08:48:19;9.40;;;8.40;;
79403;SDS011;68858;48.642;9.142;2024-01-30T08:50:44;11.20;;;8.23;;
79403;SDS011;68858;48.642;9.142;2024-01-30T08:53:10;8.60;;;7.60;;
79403;SDS011;68858;48.642;9.142;2024-01-30T08:55:35;8.83;;;7.50;;
79403;SDS011;68858;48.642;9.142;2024-01-30T08:58:00;9.83;;;7.67;;
79403;SDS011;68858;48.642;9.142;2024-01-30T09:00:28;7.50;;;6.70;;
79403;SDS011;68858;48.642;9.142;2024-01-30T09:02:54;8.20;;;6.70;;
79403;SDS011;68858;48.642;9.142;2024-01-30T09:05:19;6.87;;;6.27;;
79403;SDS011;68858;48.642;9.142;2024-01-30T09:07:44;7.07;;;6.37;;
79403;SDS011;68858;48.642;9.142;2024-01-30T09:10:10;9.30;;;6.60;;
79403;SDS011;68858;48.642;9.142;2024-01-30T09:12:36;9.53;;;8.53;;
79403;SDS011;68858;48.642;9.142;2024-01-30T09:15:01;11.27;;;9.27;;
79403;SDS011;68858;48.642;9.142;2024-01-30T09:17:27;15.37;;;10.27;;
79403;SDS011;68858;48.642;9.142;2024-01-30T09:19:53;14.20;;;10.50;;
79403;SDS011;68858;48.642;9.142;2024-01-30T09:22:18;12.97;;;10.70;;
79403;SDS011;68858;48.642;9.142;2024-01-30T09:24:43;15.27;;;9.73;;
79403;SDS011;68858;48.642;9.142;2024-01-30T09:27:09;13.67;;;10.23;;
79403;SDS011;68858;48.642;9.142;2024-01-30T09:29:34;14.17;;;9.57;;
79403;SDS011;68858;48.642;9.142;2024-01-30T09:32:01;12.13;;;9.33;;
79403;SDS011;68858;48.642;9.142;2024-01-30T09:34:26;14.07;;;10.17;;
79403;SDS011;68858;48.642;9.142;2024-01-30T09:36:53;11.53;;;9.67;;
79403;SDS011;68858;48.642;9.142;2024-01-30T09:39:18;16.27;;;10.00;;
79403;SDS011;68858;48.642;9.142;2024-01-30T09:41:48;18.20;;;9.47;;
79403;SDS011;68858;48.642;9.142;2024-01-30T09:44:15;11.53;;;9.83;;
79403;SDS011;68858;48.642;9.142;2024-01-30T09:46:41;12.53;;;10.40;;
79403;SDS011;68858;48.642;9.142;2024-01-30T09:49:07;12.20;;;10.20;;
79403;SDS011;68858;48.642;9.142;2024-01-30T09:51:33;11.93;;;9.90;;
79403;SDS011;68858;48.642;9.142;2024-01-30T09:53:59;11.60;;;9.20;;
79403;SDS011;68858;48.642;9.142;2024-01-30T09:56:24;12.83;;;9.57;;
79403;SDS011;68858;48.642;9.142;2024-01-30T09:58:49;11.00;;;9.90;;
79403;SDS011;68858;48.642;9.142;2024-01-30T10:01:15;12.73;;;9.57;;
79403;SDS011;68858;48.642;9.142;2024-01-30T10:03:43;10.97;;;9.57;;
79403;SDS011;68858;48.642;9.142;2024-01-30T10:06:09;10.73;;;9.10;;
79403;SDS011;68858;48.642;9.142;2024-01-30T10:08:34;11.60;;;9.40;;
79403;SDS011;68858;48.642;9.142;2024-01-30T10:11:01;11.30;;;9.93;;
79403;SDS011;68858;48.642;9.142;2024-01-30T10:13:28;10.90;;;9.77;;
79403;SDS011;68858;48.642;9.142;2024-01-30T10:15:53;12.23;;;9.80;;
79403;SDS011;68858;48.642;9.142;2024-01-30T10:18:19;12.17;;;10.03;;
79403;SDS011;68858;48.642;9.142;2024-01-30T10:20:45;11.43;;;10.37;;
79403;SDS011;68858;48.642;9.142;2024-01-30T10:23:11;13.17;;;10.10;;
79403;SDS011;68858;48.642;9.142;2024-01-30T10:25:37;13.13;;;10.60;;
79403;SDS011;68858;48.642;9.142;2024-01-30T10:28:02;14.07;;;9.80;;
79403;SDS011;68858;48.642;9.142;2024-01-30T10:30:28;12.37;;;9.67;;
79403;SDS011;68858;48.642;9.142;2024-01-30T10:32:53;10.73;;;8.93;;
79403;SDS011;68858;48.642;9.142;2024-01-30T10:35:19;12.67;;;9.67;;
79403;SDS011;68858;48.642;9.142;2024-01-30T10:37:44;10.43;;;9.27;;
79403;SDS011;68858;48.642;9.142;2024-01-30T10:40:12;10.57;;;9.40;;
79403;SDS011;68858;48.642;9.142;2024-01-30T10:42:40;13.03;;;9.70;;
79403;SDS011;68858;48.642;9.142;2024-01-30T10:45:08;14.00;;;10.00;;
79403;SDS011;68858;48.642;9.142;2024-01-30T10:47:35;11.53;;;10.23;;
79403;SDS011;68858;48.642;9.142;2024-01-30T10:50:02;19.53;;;10.50;;
79403;SDS011;68858;48.642;9.142;2024-01-30T10:52:28;20.67;;;10.03;;
79403;SDS011;68858;48.642;9.142;2024-01-30T10:54:55;12.37;;;9.33;;
79403;SDS011;68858;48.642;9.142;2024-01-30T10:57:23;21.83;;;10.73;;
79403;SDS011;68858;48.642;9.142;2024-01-30T10:59:50;13.07;;;9.13;;
79403;SDS011;68858;48.642;9.142;2024-01-30T11:02:17;18.07;;;10.47;;
79403;SDS011;68858;48.642;9.142;2024-01-30T11:04:43;11.77;;;9.50;;
79403;SDS011;68858;48.642;9.142;2024-01-30T11:07:13;13.47;;;8.60;;
79403;SDS011;68858;48.642;9.142;2024-01-30T11:12:26;9.73;;;6.83;;
79403;SDS011;68858;48.642;9.142;2024-01-30T11:17:42;6.07;;;4.67;;
79403;SDS011;68858;48.642;9.142;2024-01-30T11:20:12;5.63;;;4.73;;
79403;SDS011;68858;48.642;9.142;2024-01-30T11:22:40;5.53;;;3.97;;
79403;SDS011;68858;48.642;9.142;2024-01-30T11:25:15;4.07;;;3.50;;
79403;SDS011;68858;48.642;9.142;2024-01-30T11:27:42;4.07;;;3.67;;
79403;SDS011;68858;48.642;9.142;2024-01-30T11:30:09;4.40;;;3.60;;
79403;SDS011;68858;48.642;9.142;2024-01-30T11:32:34;3.30;;;2.87;;
79403;SDS011;68858;48.642;9.142;2024-01-30T11:35:00;4.10;;;3.70;;
79403;SDS011;68858;48.642;9.142;2024-01-30T11:37:25;4.23;;;3.83;;
79403;SDS011;68858;48.642;9.142;2024-01-30T11:39:53;3.47;;;3.17;;
79403;SDS011;68858;48.642;9.142;2024-01-30T11:42:19;4.13;;;3.73;;
79403;SDS011;68858;48.642;9.142;2024-01-30T11:44:47;4.23;;;3.30;;
79403;SDS011;68858;48.642;9.142;2024-01-30T11:47:14;3.47;;;3.17;;
79403;SDS011;68858;48.642;9.142;2024-01-30T11:49:39;4.33;;;2.90;;
79403;SDS011;68858;48.642;9.142;2024-01-30T11:52:05;3.67;;;2.73;;
79403;SDS011;68858;48.642;9.142;2024-01-30T11:54:31;4.10;;;3.70;;
79403;SDS011;68858;48.642;9.142;2024-01-30T11:56:56;3.90;;;2.97;;
79403;SDS011;68858;48.642;9.142;2024-01-30T11:59:21;3.60;;;3.07;;
79403;SDS011;68858;48.642;9.142;2024-01-30T12:01:47;4.53;;;2.90;;
79403;SDS011;68858;48.642;9.142;2024-01-30T12:04:12;3.00;;;2.70;;
79403;SDS011;68858;48.642;9.142;2024-01-30T12:06:39;2.87;;;2.33;;
79403;SDS011;68858;48.642;9.142;2024-01-30T12:09:05;2.50;;;2.30;;
79403;SDS011;68858;48.642;9.142;2024-01-30T12:11:32;4.00;;;3.03;;
79403;SDS011;68858;48.642;9.142;2024-01-30T12:13:58;3.33;;;2.30;;
79403;SDS011;68858;48.642;9.142;2024-01-30T12:16:24;3.87;;;2.40;;
79403;SDS011;68858;48.642;9.142;2024-01-30T12:18:49;3.37;;;2.63;;
79403;SDS011;68858;48.642;9.142;2024-01-30T12:21:24;2.30;;;2.10;;
79403;SDS011;68858;48.642;9.142;2024-01-30T12:23:49;4.13;;;2.60;;
79403;SDS011;68858;48.642;9.142;2024-01-30T12:26:15;2.47;;;2.17;;
79403;SDS011;68858;48.642;9.142;2024-01-30T12:28:47;2.97;;;2.17;;
79403;SDS011;68858;48.642;9.142;2024-01-30T12:31:14;2.40;;;2.20;;
79403;SDS011;68858;48.642;9.142;2024-01-30T12:33:39;3.17;;;2.10;;
79403;SDS011;68858;48.642;9.142;2024-01-30T12:36:04;3.00;;;2.60;;
79403;SDS011;68858;48.642;9.142;2024-01-30T12:38:30;4.03;;;2.63;;
79403;SDS011;68858;48.642;9.142;2024-01-30T12:40:56;4.70;;;2.73;;
79403;SDS011;68858;48.642;9.142;2024-01-30T12:43:21;5.03;;;3.37;;
79403;SDS011;68858;48.642;9.142;2024-01-30T12:45:47;3.17;;;2.87;;
79403;SDS011;68858;48.642;9.142;2024-01-30T12:48:13;3.07;;;2.50;;
79403;SDS011;68858;48.642;9.142;2024-01-30T12:50:39;2.90;;;2.70;;
79403;SDS011;68858;48.642;9.142;2024-01-30T12:53:04;3.63;;;2.73;;
79403;SDS011;68858;48.642;9.142;2024-01-30T12:55:30;2.70;;;2.50;;
79403;SDS011;68858;48.642;9.142;2024-01-30T12:57:56;2.40;;;2.20;;
79403;SDS011;68858;48.642;9.142;2024-01-30T13:00:22;2.63;;;2.00;;
79403;SDS011;68858;48.642;9.142;2024-01-30T13:02:47;3.47;;;2.63;;
79403;SDS011;68858;48.642;9.142;2024-01-30T13:05:13;2.77;;;2.30;;
79403;SDS011;68858;48.642;9.142;2024-01-30T13:07:39;3.37;;;2.10;;
79403;SDS011;68858;48.642;9.142;2024-01-30T13:10:04;2.57;;;2.10;;
79403;SDS011;68858;48.642;9.142;2024-01-30T13:12:31;2.50;;;2.20;;
79403;SDS011;68858;48.642;9.142;2024-01-30T13:15:00;2.87;;;2.10;;
79403;SDS011;68858;48.642;9.142;2024-01-30T13:17:26;2.37;;;2.10;;
79403;SDS011;68858;48.642;9.142;2024-01-30T13:19:52;2.70;;;2.00;;
79403;SDS011;68858;48.642;9.142;2024-01-30T13:22:19;3.40;;;2.07;;
79403;SDS011;68858;48.642;9.142;2024-01-30T13:24:46;4.27;;;3.43;;
79403;SDS011;68858;48.642;9.142;2024-01-30T13:27:12;2.37;;;1.90;;
79403;SDS011;68858;48.642;9.142;2024-01-30T13:29:38;2.37;;;2.17;;
79403;SDS011;68858;48.642;9.142;2024-01-30T13:32:03;2.30;;;1.90;;
79403;SDS011;68858;48.642;9.142;2024-01-30T13:34:29;3.43;;;1.93;;
79403;SDS011;68858;48.642;9.142;2024-01-30T13:36:54;2.80;;;2.03;;
79403;SDS011;68858;48.642;9.142;2024-01-30T13:39:20;3.23;;;2.20;;
79403;SDS011;68858;48.642;9.142;2024-01-30T13:41:45;2.07;;;1.93;;
79403;SDS011;68858;48.642;9.142;2024-01-30T13:44:11;2.07;;;1.70;;
79403;SDS011;68858;48.642;9.142;2024-01-30T13:46:37;2.40;;;2.20;;
79403;SDS011;68858;48.642;9.142;2024-01-30T13:49:05;1.80;;;1.70;;
79403;SDS011;68858;48.642;9.142;2024-01-30T13:51:30;2.23;;;2.03;;
79403;SDS011;68858;48.642;9.142;2024-01-30T13:53:56;1.80;;;1.70;;
79403;SDS011;68858;48.642;9.142;2024-01-30T13:56:21;3.03;;;2.10;;
79403;SDS011;68858;48.642;9.142;2024-01-30T13:58:49;2.53;;;2.03;;
79403;SDS011;68858;48.642;9.142;2024-01-30T14:01:15;2.50;;;2.00;;
79403;SDS011;68858;48.642;9.142;2024-01-30T14:03:41;2.93;;;2.63;;
79403;SDS011;68858;48.642;9.142;2024-01-30T14:06:06;2.97;;;2.40;;
79403;SDS011;68858;48.642;9.142;2024-01-30T14:08:32;3.60;;;2.43;;
79403;SDS011;68858;48.642;9.142;2024-01-30T14:10:57;2.27;;;2.07;;
79403;SDS011;68858;48.642;9.142;2024-01-30T14:13:23;3.20;;;2.87;;
79403;SDS011;68858;48.642;9.142;2024-01-30T14:15:51;2.40;;;2.20;;
79403;SDS011;68858;48.642;9.142;2024-01-30T14:18:17;3.43;;;2.23;;
79403;SDS011;68858;48.642;9.142;2024-01-30T14:20:42;3.40;;;2.40;;
79403;SDS011;68858;48.642;9.142;2024-01-30T14:23:08;2.90;;;2.37;;
79403;SDS011;68858;48.642;9.142;2024-01-30T14:25:33;2.93;;;2.20;;
79403;SDS011;68858;48.642;9.142;2024-01-30T14:27:58;2.73;;;2.23;;
79403;SDS011;68858;48.642;9.142;2024-01-30T14:30:23;2.30;;;2.10;;
79403;SDS011;68858;48.642;9.142;2024-01-30T14:32:49;2.73;;;2.23;;
79403;SDS011;68858;48.642;9.142;2024-01-30T14:35:15;2.27;;;2.07;;
79403;SDS011;68858;48.642;9.142;2024-01-30T14:37:40;2.73;;;2.40;;